Donnelly, ID (83615)

11:33 AM MDT on August 23, 2014 (GMT -0600)
Railroad Village | Change Station
CLOSE
Current Station
Personal Weather Station
Location: Donnelly, ID
Elevation: 4872 ft
Nearby Weather Stations

Elev 4872 ft 44.70 °N, 116.08 °W | Updated 4 seconds ago

Partly Cloudy
Partly Cloudy
62.2 °F
Feels Like 62.2 °F
N
13.8
Wind Variable Wind from North
Gusts 17.1 mph

Today
High -- | Low -- °F
--% Chance of Precip.
Yesterday
High -- | Low -- °F
Precip. -- in
6:56 AM 8:36 PM
Waning Crescent, 3% visible
Pressure 30.04 in
Visibility 10.0 miles
Clouds Few 4600 ft
Dew Point 47 °F
Humidity 58%
Rainfall 0.00 in
Snow Depth 0 in , 1 in , 0 in
UV 5 out of 12
Pollen 7.30 out of 12
Air Quality Not available.
Flu Activity Not available.
METAR KMYL 231651Z AUTO 24008KT 10SM FEW046 13/07 A3010 RMK AO2 SLP173 T01330067

More Conditions Fewer Conditions

Pressure 30.04 in
Visibility 10.0 miles
Clouds Few 4600 ft
Dew Point 47 °F
Humidity 58%
Rainfall 0.00 in
Snow Depth 0 in , 1 in , 0 in
UV 5 out of 12
Pollen 7.30 out of 12
Air Quality Not available.
Flu Activity Not available.
METAR KMYL 231651Z AUTO 24008KT 10SM FEW046 13/07 A3010 RMK AO2 SLP173 T01330067

More Conditions Fewer Conditions

10-Day Weather Forecast

Almanac

Astronomy

Aug. 23, 2014 Rise Set
Actual Time 6:56 AM MDT 8:36 PM MDT
Civil Twilight 6:25 AM MDT 9:07 PM MDT
Nautical Twilight 5:47 AM MDT 9:45 PM MDT
Astronomical Twilight 5:06 AM MDT 10:25 PM MDT
Moon 5:14 AM MDT 7:24 PM MDT
Length of Visible Light 14h 42m
Length of Day
13h 40m
Tomorrow will be 2m 54s shorter.
Waning Crescent, 3% of the Moon is Illuminated
Today
Waning Crescent
Aug 25
New
Sep 2
First Quarter
Sep 8
Full
Sep 15
Last Quarter

Today's Extremes

State Highs State Lows

Community

WunderPhotos

Upload Photos

1,746,536 photos uploaded!

WunderBlogs® & News

By Dr. Jeff Masters
Director of Meteorology, Weather Underground
By Kari Strenfel
Meteorologist, Weather Underground
By Christopher C. Burt
Weather Historian, Weather Underground
August 23, 2014
August 23, 2014
August 23, 2014

Nearby

Snow Depth

Station Depth Elevation
Long Valley 0 in 4890 ft
Squaw Flat 1 in 6240 ft
Bear Basin 0 in 5350 ft
West Branch 0 in 5560 ft
Van Wyck 1 in 4920 ft

Earthquake Activity

City Distance Mag. Time & Date
No recent earthquake activity has been reported nearby.
Minimum magnitude displayed is 2.5.

Coastal Water Temperatures

Place Temperature
No Stations Reporting

Nearby Weather Stations